British Virtual Airways Airport Information Service

Birmingham / Airport

ICAO: EGBB Country: United Kingdom, EU
Latitude: 52.4539 Longitude: -1.74803
Latest Arrival : BAW9851 (EDDF-EGBB) Latest Departure : BAW9853 (EGBB-LEBL)


WX CaptureLIVE
Data provided by noaa.gov | Fetched at 05:34:20

METAR : EGBB 050520Z 15007KT CAVOK 05/02 Q1014

TAF :


Runway Data for EGBB
Data provided by openaviationdata.com

Runway ID Mag Var Hdg Length Elevation Surface ILS Freq ILS Id ILS Slope
15 -1 147° 8648 ft 327 ft Asphalt 110.1 IBIR 3
33 -1 327° 8648 ft 327 ft Asphalt 110.1 IBM 3

Birmingham / Airport, United Kingdom, EU
Use only for reference purposes



Not for navigational purposes.